sensor_id;sensor_type;location;lat;lon;timestamp;temperature;humidity
77969;DHT22;67161;0.000;0.000;2023-04-19T00:00:30;16.70;45.20
77969;DHT22;67161;0.000;0.000;2023-04-19T00:02:55;16.80;45.30
77969;DHT22;67161;0.000;0.000;2023-04-19T00:05:21;16.70;45.20
77969;DHT22;67161;0.000;0.000;2023-04-19T00:07:49;16.70;45.20
77969;DHT22;67161;0.000;0.000;2023-04-19T00:10:15;16.70;45.30
77969;DHT22;67161;0.000;0.000;2023-04-19T00:12:40;16.70;45.30
77969;DHT22;67161;0.000;0.000;2023-04-19T00:15:06;16.70;45.30
77969;DHT22;67161;0.000;0.000;2023-04-19T00:17:33;16.70;45.40
77969;DHT22;67161;0.000;0.000;2023-04-19T00:19:58;16.70;45.40
77969;DHT22;67161;0.000;0.000;2023-04-19T00:22:25;16.70;45.40
77969;DHT22;67161;0.000;0.000;2023-04-19T00:24:51;16.70;45.40
77969;DHT22;67161;0.000;0.000;2023-04-19T00:27:17;16.70;45.40
77969;DHT22;67161;0.000;0.000;2023-04-19T00:29:43;16.60;46.30
77969;DHT22;67161;0.000;0.000;2023-04-19T00:32:08;16.60;45.40
77969;DHT22;67161;0.000;0.000;2023-04-19T00:34:34;16.60;45.40
77969;DHT22;67161;0.000;0.000;2023-04-19T00:37:00;16.60;45.40
77969;DHT22;67161;0.000;0.000;2023-04-19T00:39:25;16.60;45.30
77969;DHT22;67161;0.000;0.000;2023-04-19T00:41:51;16.60;45.30
77969;DHT22;67161;0.000;0.000;2023-04-19T00:44:17;16.60;45.30
77969;DHT22;67161;0.000;0.000;2023-04-19T00:46:43;16.60;45.40
77969;DHT22;67161;0.000;0.000;2023-04-19T00:49:09;16.60;45.40
77969;DHT22;67161;0.000;0.000;2023-04-19T00:51:35;16.60;45.50
77969;DHT22;67161;0.000;0.000;2023-04-19T00:54:02;16.60;45.50
77969;DHT22;67161;0.000;0.000;2023-04-19T00:56:28;16.50;45.40
77969;DHT22;67161;0.000;0.000;2023-04-19T00:58:55;16.50;45.50
77969;DHT22;67161;0.000;0.000;2023-04-19T01:01:21;16.50;45.40
77969;DHT22;67161;0.000;0.000;2023-04-19T01:03:47;16.50;45.50
77969;DHT22;67161;0.000;0.000;2023-04-19T01:06:13;16.50;45.40
77969;DHT22;67161;0.000;0.000;2023-04-19T01:08:39;16.50;45.40
77969;DHT22;67161;0.000;0.000;2023-04-19T01:11:05;16.50;45.50
77969;DHT22;67161;0.000;0.000;2023-04-19T01:13:32;16.50;45.50
77969;DHT22;67161;0.000;0.000;2023-04-19T01:15:59;16.50;45.50
77969;DHT22;67161;0.000;0.000;2023-04-19T01:18:24;16.50;45.50
77969;DHT22;67161;0.000;0.000;2023-04-19T01:20:53;16.50;45.50
77969;DHT22;67161;0.000;0.000;2023-04-19T01:23:19;16.50;45.50
77969;DHT22;67161;0.000;0.000;2023-04-19T01:25:45;16.50;45.50
77969;DHT22;67161;0.000;0.000;2023-04-19T01:28:10;16.50;45.50
77969;DHT22;67161;0.000;0.000;2023-04-19T01:30:36;16.50;45.60
77969;DHT22;67161;0.000;0.000;2023-04-19T01:33:02;16.50;45.60
77969;DHT22;67161;0.000;0.000;2023-04-19T01:35:27;16.40;45.60
77969;DHT22;67161;0.000;0.000;2023-04-19T01:37:53;16.50;45.70
77969;DHT22;67161;0.000;0.000;2023-04-19T01:40:23;16.40;45.60
77969;DHT22;67161;0.000;0.000;2023-04-19T01:42:49;16.40;45.60
77969;DHT22;67161;0.000;0.000;2023-04-19T01:45:14;16.40;45.70
77969;DHT22;67161;0.000;0.000;2023-04-19T01:47:40;16.40;45.70
77969;DHT22;67161;0.000;0.000;2023-04-19T01:50:06;16.40;45.70
77969;DHT22;67161;0.000;0.000;2023-04-19T01:52:32;16.40;45.70
77969;DHT22;67161;0.000;0.000;2023-04-19T01:54:57;16.40;45.80
77969;DHT22;67161;0.000;0.000;2023-04-19T01:57:23;16.40;45.80
77969;DHT22;67161;0.000;0.000;2023-04-19T01:59:49;16.40;45.80
77969;DHT22;67161;0.000;0.000;2023-04-19T02:02:14;16.40;45.80
77969;DHT22;67161;0.000;0.000;2023-04-19T02:04:40;16.40;45.90
77969;DHT22;67161;0.000;0.000;2023-04-19T02:07:06;16.30;45.80
77969;DHT22;67161;0.000;0.000;2023-04-19T02:09:35;16.30;45.80
77969;DHT22;67161;0.000;0.000;2023-04-19T02:12:01;16.30;45.90
77969;DHT22;67161;0.000;0.000;2023-04-19T02:14:26;16.30;45.80
77969;DHT22;67161;0.000;0.000;2023-04-19T02:16:52;16.30;45.80
77969;DHT22;67161;0.000;0.000;2023-04-19T02:19:18;16.30;45.80
77969;DHT22;67161;0.000;0.000;2023-04-19T02:21:44;16.30;45.80
77969;DHT22;67161;0.000;0.000;2023-04-19T02:24:09;16.30;45.80
77969;DHT22;67161;0.000;0.000;2023-04-19T02:26:35;16.30;45.80
77969;DHT22;67161;0.000;0.000;2023-04-19T02:29:00;16.30;45.80
77969;DHT22;67161;0.000;0.000;2023-04-19T02:31:26;16.30;45.70
77969;DHT22;67161;0.000;0.000;2023-04-19T02:33:52;16.20;45.70
77969;DHT22;67161;0.000;0.000;2023-04-19T02:36:17;16.20;45.60
77969;DHT22;67161;0.000;0.000;2023-04-19T02:38:43;16.20;45.60
77969;DHT22;67161;0.000;0.000;2023-04-19T02:41:08;16.20;45.60
77969;DHT22;67161;0.000;0.000;2023-04-19T02:43:34;16.20;45.60
77969;DHT22;67161;0.000;0.000;2023-04-19T02:46:00;16.20;45.50
77969;DHT22;67161;0.000;0.000;2023-04-19T02:48:25;16.20;45.50
77969;DHT22;67161;0.000;0.000;2023-04-19T02:50:51;16.10;45.30
77969;DHT22;67161;0.000;0.000;2023-04-19T02:53:16;16.20;45.40
77969;DHT22;67161;0.000;0.000;2023-04-19T02:55:42;16.10;45.30
77969;DHT22;67161;0.000;0.000;2023-04-19T02:58:07;16.10;45.30
77969;DHT22;67161;0.000;0.000;2023-04-19T03:00:33;16.10;45.20
77969;DHT22;67161;0.000;0.000;2023-04-19T03:02:59;16.10;45.20
77969;DHT22;67161;0.000;0.000;2023-04-19T03:05:26;16.10;45.20
77969;DHT22;67161;0.000;0.000;2023-04-19T03:07:52;16.10;45.10
77969;DHT22;67161;0.000;0.000;2023-04-19T03:10:17;16.10;45.10
77969;DHT22;67161;0.000;0.000;2023-04-19T03:12:43;16.00;45.00
77969;DHT22;67161;0.000;0.000;2023-04-19T03:15:09;16.00;44.90
77969;DHT22;67161;0.000;0.000;2023-04-19T03:17:35;16.00;45.00
77969;DHT22;67161;0.000;0.000;2023-04-19T03:20:01;16.00;44.90
77969;DHT22;67161;0.000;0.000;2023-04-19T03:22:32;16.00;44.80
77969;DHT22;67161;0.000;0.000;2023-04-19T03:24:57;16.00;44.80
77969;DHT22;67161;0.000;0.000;2023-04-19T03:27:23;16.00;44.80
77969;DHT22;67161;0.000;0.000;2023-04-19T03:29:48;16.00;44.70
77969;DHT22;67161;0.000;0.000;2023-04-19T03:32:14;16.00;44.70
77969;DHT22;67161;0.000;0.000;2023-04-19T03:34:39;16.00;44.70
77969;DHT22;67161;0.000;0.000;2023-04-19T03:37:05;16.00;44.70
77969;DHT22;67161;0.000;0.000;2023-04-19T03:39:31;16.00;44.60
77969;DHT22;67161;0.000;0.000;2023-04-19T03:41:56;15.90;44.60
77969;DHT22;67161;0.000;0.000;2023-04-19T03:44:22;16.00;45.50
77969;DHT22;67161;0.000;0.000;2023-04-19T03:46:47;15.90;44.50
77969;DHT22;67161;0.000;0.000;2023-04-19T03:49:13;15.90;44.40
77969;DHT22;67161;0.000;0.000;2023-04-19T03:51:38;15.90;44.40
77969;DHT22;67161;0.000;0.000;2023-04-19T03:54:04;15.90;44.40
77969;DHT22;67161;0.000;0.000;2023-04-19T03:56:30;15.90;44.40
77969;DHT22;67161;0.000;0.000;2023-04-19T03:58:55;15.90;44.30
77969;DHT22;67161;0.000;0.000;2023-04-19T04:01:22;15.90;44.30
77969;DHT22;67161;0.000;0.000;2023-04-19T04:03:48;15.90;44.30
77969;DHT22;67161;0.000;0.000;2023-04-19T04:06:14;15.90;44.30
77969;DHT22;67161;0.000;0.000;2023-04-19T04:08:40;15.90;44.20
77969;DHT22;67161;0.000;0.000;2023-04-19T04:11:05;15.80;44.20
77969;DHT22;67161;0.000;0.000;2023-04-19T04:13:31;15.80;44.20
77969;DHT22;67161;0.000;0.000;2023-04-19T04:15:56;15.80;44.10
77969;DHT22;67161;0.000;0.000;2023-04-19T04:18:22;15.80;44.10
77969;DHT22;67161;0.000;0.000;2023-04-19T04:20:48;15.80;44.10
77969;DHT22;67161;0.000;0.000;2023-04-19T04:23:13;15.80;44.10
77969;DHT22;67161;0.000;0.000;2023-04-19T04:25:39;15.80;44.10
77969;DHT22;67161;0.000;0.000;2023-04-19T04:28:05;15.80;44.10
77969;DHT22;67161;0.000;0.000;2023-04-19T04:30:32;15.80;44.00
77969;DHT22;67161;0.000;0.000;2023-04-19T04:32:58;15.80;44.00
77969;DHT22;67161;0.000;0.000;2023-04-19T04:35:24;15.80;43.90
77969;DHT22;67161;0.000;0.000;2023-04-19T04:37:50;15.80;43.90
77969;DHT22;67161;0.000;0.000;2023-04-19T04:40:18;15.80;43.90
77969;DHT22;67161;0.000;0.000;2023-04-19T04:42:44;15.80;44.00
77969;DHT22;67161;0.000;0.000;2023-04-19T04:45:10;15.70;43.90
77969;DHT22;67161;0.000;0.000;2023-04-19T04:47:36;15.70;43.90
77969;DHT22;67161;0.000;0.000;2023-04-19T04:50:02;15.70;43.90
77969;DHT22;67161;0.000;0.000;2023-04-19T04:52:28;15.70;43.90
77969;DHT22;67161;0.000;0.000;2023-04-19T04:54:54;15.70;43.90
77969;DHT22;67161;0.000;0.000;2023-04-19T04:57:20;15.70;43.90
77969;DHT22;67161;0.000;0.000;2023-04-19T04:59:46;15.70;43.90
77969;DHT22;67161;0.000;0.000;2023-04-19T05:02:14;15.70;43.90
77969;DHT22;67161;0.000;0.000;2023-04-19T05:04:40;15.70;43.90
77969;DHT22;67161;0.000;0.000;2023-04-19T05:07:05;15.70;43.90
77969;DHT22;67161;0.000;0.000;2023-04-19T05:09:31;15.70;43.80
77969;DHT22;67161;0.000;0.000;2023-04-19T05:11:56;15.70;43.90
77969;DHT22;67161;0.000;0.000;2023-04-19T05:14:22;15.70;43.80
77969;DHT22;67161;0.000;0.000;2023-04-19T05:16:47;15.70;43.80
77969;DHT22;67161;0.000;0.000;2023-04-19T05:19:13;15.60;43.80
77969;DHT22;67161;0.000;0.000;2023-04-19T05:21:39;15.70;43.70
77969;DHT22;67161;0.000;0.000;2023-04-19T05:24:05;15.70;43.70
77969;DHT22;67161;0.000;0.000;2023-04-19T05:26:30;15.70;43.70
77969;DHT22;67161;0.000;0.000;2023-04-19T05:28:56;15.70;43.70
77969;DHT22;67161;0.000;0.000;2023-04-19T05:31:22;15.70;43.70
77969;DHT22;67161;0.000;0.000;2023-04-19T05:33:47;15.70;43.60
77969;DHT22;67161;0.000;0.000;2023-04-19T05:36:13;15.70;43.60
77969;DHT22;67161;0.000;0.000;2023-04-19T05:38:38;15.70;43.60
77969;DHT22;67161;0.000;0.000;2023-04-19T05:41:04;15.70;43.50
77969;DHT22;67161;0.000;0.000;2023-04-19T05:43:30;15.70;43.50
77969;DHT22;67161;0.000;0.000;2023-04-19T05:45:56;15.70;43.40
77969;DHT22;67161;0.000;0.000;2023-04-19T05:48:21;15.70;43.40
77969;DHT22;67161;0.000;0.000;2023-04-19T05:50:47;15.80;43.50
77969;DHT22;67161;0.000;0.000;2023-04-19T05:53:13;15.80;43.50
77969;DHT22;67161;0.000;0.000;2023-04-19T05:55:38;15.80;43.30
77969;DHT22;67161;0.000;0.000;2023-04-19T05:58:04;15.80;43.30
77969;DHT22;67161;0.000;0.000;2023-04-19T06:00:29;15.80;43.20
77969;DHT22;67161;0.000;0.000;2023-04-19T06:02:55;15.80;43.20
77969;DHT22;67161;0.000;0.000;2023-04-19T06:05:20;15.80;43.10
77969;DHT22;67161;0.000;0.000;2023-04-19T06:07:46;15.80;43.10
77969;DHT22;67161;0.000;0.000;2023-04-19T06:10:12;15.80;43.10
77969;DHT22;67161;0.000;0.000;2023-04-19T06:12:38;15.80;42.90
77969;DHT22;67161;0.000;0.000;2023-04-19T06:15:04;15.80;42.80
77969;DHT22;67161;0.000;0.000;2023-04-19T06:17:30;15.80;42.80
77969;DHT22;67161;0.000;0.000;2023-04-19T06:19:56;15.80;42.80
77969;DHT22;67161;0.000;0.000;2023-04-19T06:22:21;15.90;42.80
77969;DHT22;67161;0.000;0.000;2023-04-19T06:24:47;15.90;42.70
77969;DHT22;67161;0.000;0.000;2023-04-19T06:27:14;15.90;42.60
77969;DHT22;67161;0.000;0.000;2023-04-19T06:29:41;15.90;42.60
77969;DHT22;67161;0.000;0.000;2023-04-19T06:32:07;15.90;42.40
77969;DHT22;67161;0.000;0.000;2023-04-19T06:34:33;15.90;42.40
77969;DHT22;67161;0.000;0.000;2023-04-19T06:36:58;15.90;42.30
77969;DHT22;67161;0.000;0.000;2023-04-19T06:39:24;15.90;42.10
77969;DHT22;67161;0.000;0.000;2023-04-19T06:41:51;15.90;42.10
77969;DHT22;67161;0.000;0.000;2023-04-19T06:44:17;15.90;42.00
77969;DHT22;67161;0.000;0.000;2023-04-19T06:46:42;16.00;41.90
77969;DHT22;67161;0.000;0.000;2023-04-19T06:49:08;16.00;41.90
77969;DHT22;67161;0.000;0.000;2023-04-19T06:51:34;16.00;41.70
77969;DHT22;67161;0.000;0.000;2023-04-19T06:53:59;16.00;41.60
77969;DHT22;67161;0.000;0.000;2023-04-19T06:56:51;16.00;41.50
77969;DHT22;67161;0.000;0.000;2023-04-19T06:59:19;16.00;41.00
77969;DHT22;67161;0.000;0.000;2023-04-19T07:01:45;16.00;41.30
77969;DHT22;67161;0.000;0.000;2023-04-19T07:04:11;16.00;41.20
77969;DHT22;67161;0.000;0.000;2023-04-19T07:06:38;16.10;41.20
77969;DHT22;67161;0.000;0.000;2023-04-19T07:09:05;16.10;41.00
77969;DHT22;67161;0.000;0.000;2023-04-19T07:11:31;16.10;40.90
77969;DHT22;67161;0.000;0.000;2023-04-19T07:13:57;16.10;40.80
77969;DHT22;67161;0.000;0.000;2023-04-19T07:16:24;16.10;40.80
77969;DHT22;67161;0.000;0.000;2023-04-19T07:18:49;16.20;40.70
77969;DHT22;67161;0.000;0.000;2023-04-19T07:21:15;16.20;40.70
77969;DHT22;67161;0.000;0.000;2023-04-19T07:23:40;16.20;40.60
77969;DHT22;67161;0.000;0.000;2023-04-19T07:26:06;16.20;40.50
77969;DHT22;67161;0.000;0.000;2023-04-19T07:28:32;16.30;40.50
77969;DHT22;67161;0.000;0.000;2023-04-19T07:30:58;16.30;40.30
77969;DHT22;67161;0.000;0.000;2023-04-19T07:33:26;16.30;40.30
77969;DHT22;67161;0.000;0.000;2023-04-19T07:35:52;16.30;40.20
77969;DHT22;67161;0.000;0.000;2023-04-19T07:38:18;16.30;40.10
77969;DHT22;67161;0.000;0.000;2023-04-19T07:40:44;16.30;40.00
77969;DHT22;67161;0.000;0.000;2023-04-19T07:43:09;16.40;40.20
77969;DHT22;67161;0.000;0.000;2023-04-19T07:45:35;16.40;40.30
77969;DHT22;67161;0.000;0.000;2023-04-19T07:48:01;16.50;40.20
77969;DHT22;67161;0.000;0.000;2023-04-19T07:50:27;16.50;40.10
77969;DHT22;67161;0.000;0.000;2023-04-19T07:52:52;16.50;40.00
77969;DHT22;67161;0.000;0.000;2023-04-19T07:55:18;16.60;40.00
77969;DHT22;67161;0.000;0.000;2023-04-19T07:57:44;16.60;39.90
77969;DHT22;67161;0.000;0.000;2023-04-19T08:00:13;16.60;39.80
77969;DHT22;67161;0.000;0.000;2023-04-19T08:02:44;16.60;39.70
77969;DHT22;67161;0.000;0.000;2023-04-19T08:05:11;16.70;39.60
77969;DHT22;67161;0.000;0.000;2023-04-19T08:07:37;16.70;39.40
77969;DHT22;67161;0.000;0.000;2023-04-19T08:10:04;16.80;39.40
77969;DHT22;67161;0.000;0.000;2023-04-19T08:12:29;16.80;39.30
77969;DHT22;67161;0.000;0.000;2023-04-19T08:14:55;16.80;39.20
77969;DHT22;67161;0.000;0.000;2023-04-19T08:17:21;16.80;39.00
77969;DHT22;67161;0.000;0.000;2023-04-19T08:19:49;16.90;38.90
77969;DHT22;67161;0.000;0.000;2023-04-19T08:22:15;16.90;38.80
77969;DHT22;67161;0.000;0.000;2023-04-19T08:24:42;16.90;38.60
77969;DHT22;67161;0.000;0.000;2023-04-19T08:27:09;16.90;38.50
77969;DHT22;67161;0.000;0.000;2023-04-19T08:29:35;17.00;38.50
77969;DHT22;67161;0.000;0.000;2023-04-19T08:32:01;17.00;39.30
77969;DHT22;67161;0.000;0.000;2023-04-19T08:34:27;17.00;38.30
77969;DHT22;67161;0.000;0.000;2023-04-19T08:36:53;17.00;38.10
77969;DHT22;67161;0.000;0.000;2023-04-19T08:39:18;17.10;38.10
77969;DHT22;67161;0.000;0.000;2023-04-19T08:41:44;17.10;38.00
77969;DHT22;67161;0.000;0.000;2023-04-19T08:44:11;17.10;37.90
77969;DHT22;67161;0.000;0.000;2023-04-19T08:46:37;17.20;37.90
77969;DHT22;67161;0.000;0.000;2023-04-19T08:49:04;17.20;37.80
77969;DHT22;67161;0.000;0.000;2023-04-19T08:51:31;17.20;37.70
77969;DHT22;67161;0.000;0.000;2023-04-19T08:53:57;17.30;37.80
77969;DHT22;67161;0.000;0.000;2023-04-19T08:56:24;17.30;37.70
77969;DHT22;67161;0.000;0.000;2023-04-19T08:58:50;17.30;37.60
77969;DHT22;67161;0.000;0.000;2023-04-19T09:01:16;17.40;38.60
77969;DHT22;67161;0.000;0.000;2023-04-19T09:03:43;17.40;37.60
77969;DHT22;67161;0.000;0.000;2023-04-19T09:06:10;17.40;37.60
77969;DHT22;67161;0.000;0.000;2023-04-19T09:08:37;17.40;37.60
77969;DHT22;67161;0.000;0.000;2023-04-19T09:11:03;17.50;37.50
77969;DHT22;67161;0.000;0.000;2023-04-19T09:13:30;17.50;37.50
77969;DHT22;67161;0.000;0.000;2023-04-19T09:15:56;17.50;38.30
77969;DHT22;67161;0.000;0.000;2023-04-19T09:18:23;17.60;37.40
77969;DHT22;67161;0.000;0.000;2023-04-19T09:20:52;17.60;37.30
77969;DHT22;67161;0.000;0.000;2023-04-19T09:23:26;17.60;37.30
77969;DHT22;67161;0.000;0.000;2023-04-19T09:25:54;17.70;37.30
77969;DHT22;67161;0.000;0.000;2023-04-19T09:28:21;17.70;37.30
77969;DHT22;67161;0.000;0.000;2023-04-19T09:30:47;17.70;37.20
77969;DHT22;67161;0.000;0.000;2023-04-19T09:33:13;17.70;37.20
77969;DHT22;67161;0.000;0.000;2023-04-19T09:35:47;17.80;37.10
77969;DHT22;67161;0.000;0.000;2023-04-19T09:38:14;17.80;37.10
77969;DHT22;67161;0.000;0.000;2023-04-19T09:40:40;17.80;36.90
77969;DHT22;67161;0.000;0.000;2023-04-19T09:43:06;17.90;36.90
77969;DHT22;67161;0.000;0.000;2023-04-19T09:45:40;17.90;36.80
77969;DHT22;67161;0.000;0.000;2023-04-19T09:48:06;17.90;36.70
77969;DHT22;67161;0.000;0.000;2023-04-19T09:50:32;18.00;36.80
77969;DHT22;67161;0.000;0.000;2023-04-19T09:52:58;18.00;36.70
77969;DHT22;67161;0.000;0.000;2023-04-19T09:55:25;18.00;37.50
77969;DHT22;67161;0.000;0.000;2023-04-19T09:57:51;18.00;36.50
77969;DHT22;67161;0.000;0.000;2023-04-19T10:00:17;18.00;36.40
77969;DHT22;67161;0.000;0.000;2023-04-19T10:02:44;18.10;36.40
77969;DHT22;67161;0.000;0.000;2023-04-19T10:05:14;18.10;36.30
77969;DHT22;67161;0.000;0.000;2023-04-19T10:07:41;18.10;36.30
77969;DHT22;67161;0.000;0.000;2023-04-19T10:10:07;18.10;36.10
77969;DHT22;67161;0.000;0.000;2023-04-19T10:12:34;18.20;36.00
77969;DHT22;67161;0.000;0.000;2023-04-19T10:15:00;18.20;36.10
77969;DHT22;67161;0.000;0.000;2023-04-19T10:17:26;18.20;36.00
77969;DHT22;67161;0.000;0.000;2023-04-19T10:19:58;18.20;35.90
77969;DHT22;67161;0.000;0.000;2023-04-19T10:22:26;18.30;35.70
77969;DHT22;67161;0.000;0.000;2023-04-19T10:25:14;18.30;35.70
77969;DHT22;67161;0.000;0.000;2023-04-19T10:27:41;18.30;35.20
77969;DHT22;67161;0.000;0.000;2023-04-19T10:30:29;18.30;35.60
77969;DHT22;67161;0.000;0.000;2023-04-19T10:32:57;18.30;35.00
77969;DHT22;67161;0.000;0.000;2023-04-19T10:35:33;18.40;35.50
77969;DHT22;67161;0.000;0.000;2023-04-19T10:38:14;18.40;35.30
77969;DHT22;67161;0.000;0.000;2023-04-19T10:43:19;18.40;35.10
77969;DHT22;67161;0.000;0.000;2023-04-19T10:45:45;18.50;35.20
77969;DHT22;67161;0.000;0.000;2023-04-19T10:53:49;18.50;35.20
77969;DHT22;67161;0.000;0.000;2023-04-19T10:56:18;18.50;34.60
77969;DHT22;67161;0.000;0.000;2023-04-19T11:01:50;18.50;34.60
77969;DHT22;67161;0.000;0.000;2023-04-19T11:04:56;18.60;34.80
77969;DHT22;67161;0.000;0.000;2023-04-19T11:07:09;18.60;34.80
77969;DHT22;67161;0.000;0.000;2023-04-19T11:12:09;18.60;35.00
77969;DHT22;67161;0.000;0.000;2023-04-19T11:14:51;18.60;34.70
77969;DHT22;67161;0.000;0.000;2023-04-19T11:17:22;18.70;34.50
77969;DHT22;67161;0.000;0.000;2023-04-19T11:22:31;18.70;34.70
77969;DHT22;67161;0.000;0.000;2023-04-19T11:25:04;18.70;34.70
77969;DHT22;67161;0.000;0.000;2023-04-19T11:27:30;18.70;34.60
77969;DHT22;67161;0.000;0.000;2023-04-19T11:30:19;18.70;34.80
77969;DHT22;67161;0.000;0.000;2023-04-19T11:32:52;18.70;34.60
77969;DHT22;67161;0.000;0.000;2023-04-19T11:35:23;18.70;34.70
77969;DHT22;67161;0.000;0.000;2023-04-19T11:37:50;18.70;34.60
77969;DHT22;67161;0.000;0.000;2023-04-19T11:40:17;18.80;34.70
77969;DHT22;67161;0.000;0.000;2023-04-19T11:42:44;18.70;34.60
77969;DHT22;67161;0.000;0.000;2023-04-19T11:45:10;18.80;34.70
77969;DHT22;67161;0.000;0.000;2023-04-19T11:47:47;18.80;34.60
77969;DHT22;67161;0.000;0.000;2023-04-19T11:52:58;18.80;34.30
77969;DHT22;67161;0.000;0.000;2023-04-19T11:55:24;18.80;34.60
77969;DHT22;67161;0.000;0.000;2023-04-19T11:57:49;18.90;34.60
77969;DHT22;67161;0.000;0.000;2023-04-19T12:00:15;18.80;34.60
77969;DHT22;67161;0.000;0.000;2023-04-19T12:02:51;18.90;34.60
77969;DHT22;67161;0.000;0.000;2023-04-19T12:05:16;18.90;34.50
77969;DHT22;67161;0.000;0.000;2023-04-19T12:08:01;18.90;34.60
77969;DHT22;67161;0.000;0.000;2023-04-19T12:10:28;18.90;34.50
77969;DHT22;67161;0.000;0.000;2023-04-19T12:12:54;18.90;34.70
77969;DHT22;67161;0.000;0.000;2023-04-19T12:15:20;18.90;34.80
77969;DHT22;67161;0.000;0.000;2023-04-19T12:17:59;18.90;34.90
77969;DHT22;67161;0.000;0.000;2023-04-19T12:20:36;18.90;34.90
77969;DHT22;67161;0.000;0.000;2023-04-19T12:23:02;18.90;35.20
77969;DHT22;67161;0.000;0.000;2023-04-19T12:25:32;18.90;35.50
77969;DHT22;67161;0.000;0.000;2023-04-19T12:27:59;18.90;35.50
77969;DHT22;67161;0.000;0.000;2023-04-19T12:30:26;19.00;35.50
77969;DHT22;67161;0.000;0.000;2023-04-19T12:32:54;19.00;35.60
77969;DHT22;67161;0.000;0.000;2023-04-19T12:35:24;19.00;36.00
77969;DHT22;67161;0.000;0.000;2023-04-19T12:37:52;19.00;36.40
77969;DHT22;67161;0.000;0.000;2023-04-19T12:40:17;19.00;36.50
77969;DHT22;67161;0.000;0.000;2023-04-19T12:42:43;19.00;36.50
77969;DHT22;67161;0.000;0.000;2023-04-19T12:45:09;19.00;36.50
77969;DHT22;67161;0.000;0.000;2023-04-19T12:47:35;19.00;36.70
77969;DHT22;67161;0.000;0.000;2023-04-19T12:50:01;19.00;37.10
77969;DHT22;67161;0.000;0.000;2023-04-19T12:52:27;19.10;37.30
77969;DHT22;67161;0.000;0.000;2023-04-19T12:54:52;19.10;37.30
77969;DHT22;67161;0.000;0.000;2023-04-19T12:57:18;19.10;37.30
77969;DHT22;67161;0.000;0.000;2023-04-19T12:59:43;19.10;37.20
77969;DHT22;67161;0.000;0.000;2023-04-19T13:02:09;19.10;37.50
77969;DHT22;67161;0.000;0.000;2023-04-19T13:04:35;19.10;37.50
77969;DHT22;67161;0.000;0.000;2023-04-19T13:07:01;19.10;37.50
77969;DHT22;67161;0.000;0.000;2023-04-19T13:09:27;19.10;37.80
77969;DHT22;67161;0.000;0.000;2023-04-19T13:11:56;19.10;37.80
77969;DHT22;67161;0.000;0.000;2023-04-19T13:14:23;19.10;37.70
77969;DHT22;67161;0.000;0.000;2023-04-19T13:16:49;19.10;37.80
77969;DHT22;67161;0.000;0.000;2023-04-19T13:19:14;19.10;37.70
77969;DHT22;67161;0.000;0.000;2023-04-19T13:21:40;19.10;37.80
77969;DHT22;67161;0.000;0.000;2023-04-19T13:24:06;19.10;37.90
77969;DHT22;67161;0.000;0.000;2023-04-19T13:26:32;19.10;38.00
77969;DHT22;67161;0.000;0.000;2023-04-19T13:28:58;19.10;38.00
77969;DHT22;67161;0.000;0.000;2023-04-19T13:31:25;19.10;38.00
77969;DHT22;67161;0.000;0.000;2023-04-19T13:33:51;19.10;38.10
77969;DHT22;67161;0.000;0.000;2023-04-19T13:36:17;19.10;38.20
77969;DHT22;67161;0.000;0.000;2023-04-19T13:38:43;19.10;38.20
77969;DHT22;67161;0.000;0.000;2023-04-19T13:41:09;19.10;38.20
77969;DHT22;67161;0.000;0.000;2023-04-19T13:43:34;19.10;38.20
77969;DHT22;67161;0.000;0.000;2023-04-19T13:46:00;19.10;38.20
77969;DHT22;67161;0.000;0.000;2023-04-19T13:48:25;19.10;38.10
77969;DHT22;67161;0.000;0.000;2023-04-19T13:50:56;19.10;38.10
77969;DHT22;67161;0.000;0.000;2023-04-19T13:53:26;19.10;38.20
77969;DHT22;67161;0.000;0.000;2023-04-19T13:55:53;19.00;38.10
77969;DHT22;67161;0.000;0.000;2023-04-19T13:58:19;19.00;38.20
77969;DHT22;67161;0.000;0.000;2023-04-19T14:00:45;19.00;38.30
77969;DHT22;67161;0.000;0.000;2023-04-19T14:03:12;19.00;38.50
77969;DHT22;67161;0.000;0.000;2023-04-19T14:05:38;19.00;38.60
77969;DHT22;67161;0.000;0.000;2023-04-19T14:08:03;19.00;38.60
77969;DHT22;67161;0.000;0.000;2023-04-19T14:10:30;19.00;38.80
77969;DHT22;67161;0.000;0.000;2023-04-19T14:12:55;19.00;38.70
77969;DHT22;67161;0.000;0.000;2023-04-19T14:15:21;19.00;38.60
77969;DHT22;67161;0.000;0.000;2023-04-19T14:17:48;19.00;38.80
77969;DHT22;67161;0.000;0.000;2023-04-19T14:20:15;19.00;39.10
77969;DHT22;67161;0.000;0.000;2023-04-19T14:22:41;19.00;40.30
77969;DHT22;67161;0.000;0.000;2023-04-19T14:25:08;19.00;39.20
77969;DHT22;67161;0.000;0.000;2023-04-19T14:27:34;19.00;39.40
77969;DHT22;67161;0.000;0.000;2023-04-19T14:30:00;19.00;39.30
77969;DHT22;67161;0.000;0.000;2023-04-19T14:32:26;19.10;39.70
77969;DHT22;67161;0.000;0.000;2023-04-19T14:34:52;19.10;39.70
77969;DHT22;67161;0.000;0.000;2023-04-19T14:37:18;19.10;39.60
77969;DHT22;67161;0.000;0.000;2023-04-19T14:39:45;19.00;39.40
77969;DHT22;67161;0.000;0.000;2023-04-19T14:42:11;19.00;39.60
77969;DHT22;67161;0.000;0.000;2023-04-19T14:44:36;19.00;39.40
77969;DHT22;67161;0.000;0.000;2023-04-19T14:47:02;19.00;39.50
77969;DHT22;67161;0.000;0.000;2023-04-19T14:49:28;19.00;39.60
77969;DHT22;67161;0.000;0.000;2023-04-19T14:51:53;19.00;39.70
77969;DHT22;67161;0.000;0.000;2023-04-19T14:54:19;19.00;39.50
77969;DHT22;67161;0.000;0.000;2023-04-19T14:56:44;19.00;39.40
77969;DHT22;67161;0.000;0.000;2023-04-19T14:59:11;19.00;39.60
77969;DHT22;67161;0.000;0.000;2023-04-19T15:01:36;19.00;39.50
77969;DHT22;67161;0.000;0.000;2023-04-19T15:04:02;19.00;39.60
77969;DHT22;67161;0.000;0.000;2023-04-19T15:06:28;19.00;39.60
77969;DHT22;67161;0.000;0.000;2023-04-19T15:08:53;19.00;39.60
77969;DHT22;67161;0.000;0.000;2023-04-19T15:11:19;19.00;39.50
77969;DHT22;67161;0.000;0.000;2023-04-19T15:13:44;18.90;39.50
77969;DHT22;67161;0.000;0.000;2023-04-19T15:16:10;18.90;39.50
77969;DHT22;67161;0.000;0.000;2023-04-19T15:18:36;18.90;39.50
77969;DHT22;67161;0.000;0.000;2023-04-19T15:21:02;18.90;39.50
77969;DHT22;67161;0.000;0.000;2023-04-19T15:23:28;18.90;39.50
77969;DHT22;67161;0.000;0.000;2023-04-19T15:25:54;18.90;39.90
77969;DHT22;67161;0.000;0.000;2023-04-19T15:28:22;18.90;40.10
77969;DHT22;67161;0.000;0.000;2023-04-19T15:31:14;18.90;40.20
77969;DHT22;67161;0.000;0.000;2023-04-19T15:33:40;18.90;40.30
77969;DHT22;67161;0.000;0.000;2023-04-19T15:36:06;18.90;40.70
77969;DHT22;67161;0.000;0.000;2023-04-19T15:38:32;18.90;40.20
77969;DHT22;67161;0.000;0.000;2023-04-19T15:40:58;18.90;41.30
77969;DHT22;67161;0.000;0.000;2023-04-19T15:43:25;18.90;40.50
77969;DHT22;67161;0.000;0.000;2023-04-19T15:45:51;18.90;40.40
77969;DHT22;67161;0.000;0.000;2023-04-19T15:48:17;18.90;41.10
77969;DHT22;67161;0.000;0.000;2023-04-19T15:50:44;18.90;40.10
77969;DHT22;67161;0.000;0.000;2023-04-19T15:53:10;18.90;39.80
77969;DHT22;67161;0.000;0.000;2023-04-19T15:55:36;19.00;39.60
77969;DHT22;67161;0.000;0.000;2023-04-19T15:58:02;19.20;39.30
77969;DHT22;67161;0.000;0.000;2023-04-19T16:00:28;19.50;38.70